Hailun, China
Current Conditions -  °F | °C
As of 6:00 AM on Sunday 26 Oct 2014 (Local Time) from ZYHB Reporting Station
Clear Clear  
Wind Chill: 22°   Ceiling: Unl
Heat Index: 34°   Visibility: 6mi
Dew Point: 16°   Wind: 22mph
Humidity: 48%   Direction: 250°WSW
Pressure: 29.83"   Gusts: 34mph
Location:  47.45°N, 126.93°E
Report Text: ZYHB 252200Z 25010G15MPS CAVOK 01/M09 Q1010 NOSIG
Loading
Personal Weather Stations






























Interactive Weather Map
Tropical Storm Tracking
New forecast layout! Learn more

10-Day Weather Forecast

Advertisements
Track Severe Weather on mobile